Time;durP1;ratioP1;P1;durP2;ratioP2;P2;SDS_P1;SDS_P2;PMS_P1;PMS_P2;Temp;Humidity;BMP_temperature;BMP_pressure;BME280_temperature;BME280_humidity;BME280_pressure;Samples;Min_cycle;Max_cycle;Signal;HPM_P1;HPM_P2
2022/12/27 00:01:47;;;;;;;7.37;6.57;;;;;;;1.79;100.00;101973.91;10581812;28;20115;-68
2022/12/27 00:06:50;;;;;;;10.27;5.30;;;;;;;1.76;100.00;101979.06;10587173;28;20315;-67
2022/12/27 00:11:51;;;;;;;;;;;;;;;1.76;100.00;101984.19;10586793;28;20125;-67
2022/12/27 00:16:54;;;;;;;10.63;9.52;;;;;;;1.76;100.00;101991.03;10583949;28;20491;-68
2022/12/27 00:21:56;;;;;;;17.35;16.05;;;;;;;1.74;100.00;101993.59;10585861;28;20090;-68
2022/12/27 00:26:58;;;;;;;37.20;33.50;;;;;;;1.73;100.00;101994.44;10586093;28;20049;-69
2022/12/27 00:32:01;;;;;;;8.13;6.67;;;;;;;1.73;100.00;101991.88;10586010;28;20360;-67
2022/12/27 00:37:02;;;;;;;62.42;57.17;;;;;;;1.78;100.00;101987.63;10584941;28;20344;-68
2022/12/27 00:42:04;;;;;;;131.67;121.80;;;;;;;1.73;100.00;101991.88;10585821;28;20054;-68
2022/12/27 00:47:07;;;;;;;25.35;23.83;;;;;;;1.72;100.00;101992.72;10582603;28;20363;-67
2022/12/27 00:52:09;;;;;;;105.88;96.15;;;;;;;1.78;100.00;101997.94;10585061;28;20070;-68
2022/12/27 00:57:11;;;;;;;12.75;10.00;;;;;;;1.61;100.00;102005.44;10584523;28;20124;-68
2022/12/27 01:02:14;;;;;;;10.67;10.07;;;;;;;1.60;100.00;102016.56;10584720;28;20484;-69
2022/12/27 01:07:15;;;;;;;10.85;7.18;;;;;;;1.61;100.00;102030.31;10584221;28;20313;-68
2022/12/27 01:12:17;;;;;;;18.13;16.60;;;;;;;1.75;100.00;102031.34;10583914;28;20065;-67
2022/12/27 01:17:20;;;;;;;14.25;13.43;;;;;;;1.72;100.00;102039.06;10581483;28;20085;-67
2022/12/27 01:22:22;;;;;;;52.95;49.58;;;;;;;1.77;100.00;102039.09;10583636;28;20088;-71
2022/12/27 01:27:24;;;;;;;149.00;137.43;;;;;;;1.82;100.00;102042.63;10583073;28;20062;-69
2022/12/27 01:32:27;;;;;;;17.58;15.77;;;;;;;1.86;100.00;102052.13;10583766;28;20070;-68
2022/12/27 01:37:29;;;;;;;12.80;11.82;;;;;;;1.86;100.00;102053.81;10582802;28;20130;-67
2022/12/27 01:47:59;;;;;;;26.42;24.92;;;;;;;1.86;100.00;102066.69;10580185;28;20051;-67
2022/12/27 01:53:12;;;;;;;13.95;13.00;;;;;;;1.86;100.00;102076.97;10582891;28;20072;-68
2022/12/27 01:58:21;;;;;;;15.73;12.35;;;;;;;1.91;100.00;102078.78;10581932;28;20148;-68
2022/12/27 02:03:30;;;;;;;17.05;14.90;;;;;;;1.90;100.00;102091.63;10582126;28;20065;-68
2022/12/27 02:08:48;;;;;;;27.17;25.30;;;;;;;1.86;100.00;102095.00;10582005;28;20067;-69
2022/12/27 02:13:50;;;;;;;223.75;208.55;;;;;;;1.99;100.00;102093.47;10581751;28;20145;-68
2022/12/27 02:18:53;;;;;;;35.72;33.67;;;;;;;1.91;100.00;102091.66;10578779;28;20086;-69
2022/12/27 02:24:22;;;;;;;107.65;100.70;;;;;;;2.08;100.00;102097.88;10580626;28;20068;-69
2022/12/27 02:29:53;;;;;;;36.25;33.70;;;;;;;1.97;100.00;102097.72;10579759;28;20149;-67
2022/12/27 02:35:08;;;;;;;34.10;32.13;;;;;;;2.03;100.00;102105.53;10579815;28;20076;-69
2022/12/27 02:57:08;;;;;;;208.40;191.05;;;;;;;2.06;100.00;102115.88;10580126;28;20070;-69
2022/12/27 03:08:04;;;;;;;92.38;87.22;;;;;;;2.10;100.00;102096.19;10563253;28;20069;-68
2022/12/27 03:19:11;;;;;;;64.65;60.90;;;;;;;2.33;100.00;102105.91;10576810;28;20418;-68
2022/12/27 03:35:08;;;;;;;53.65;50.80;;;;;;;2.25;100.00;102134.16;10577794;28;20078;-68
2022/12/27 03:40:20;;;;;;;50.85;48.17;;;;;;;2.20;100.00;102139.25;10578525;28;20056;-67
2022/12/27 03:46:32;;;;;;;40.20;37.73;;;;;;;2.14;100.00;102141.72;10577967;28;20067;-66
2022/12/27 03:50:54;;;;;;;48.92;46.50;;;;;;;2.10;100.00;102142.53;10577429;28;20056;-68
2022/12/27 03:55:57;;;;;;;164.88;154.50;;;;;;;2.05;100.00;102145.91;10578090;28;20515;-67
2022/12/27 04:00:59;;;;;;;44.95;42.65;;;;;;;1.99;100.00;102145.81;10578109;28;20514;-67
2022/12/27 04:06:02;;;;;;;54.58;51.78;;;;;;;1.94;100.00;102155.19;10577786;28;20476;-67
2022/12/27 04:37:45;;;;;;;71.05;66.15;;;;;;;2.01;100.00;102153.56;10577430;28;20550;-68
2022/12/27 05:04:11;;;;;;;36.05;33.25;;;;;;;1.92;100.00;102175.75;10584257;28;20050;-67
2022/12/27 05:14:34;;;;;;;85.63;81.03;;;;;;;1.86;100.00;102170.53;10583908;28;20082;-67
2022/12/27 05:19:36;;;;;;;72.10;67.90;;;;;;;1.82;100.00;102178.19;10582050;28;20143;-68
2022/12/27 05:29:58;;;;;;;53.58;49.95;;;;;;;1.84;100.00;102191.97;10583374;28;20052;-67
2022/12/27 05:35:00;;;;;;;105.87;98.67;;;;;;;1.81;100.00;102192.75;10583126;28;20086;-67
2022/12/27 05:40:04;;;;;;;55.87;52.70;;;;;;;1.78;100.00;102221.03;10583695;28;20365;-66
2022/12/27 05:45:08;;;;;;;85.30;80.80;;;;;;;1.76;100.00;102223.59;10582892;28;20309;-66
2022/12/27 05:50:11;;;;;;;80.18;75.85;;;;;;;1.80;100.00;102230.50;10580191;28;20059;-65
2022/12/27 05:55:14;;;;;;;77.43;73.57;;;;;;;1.71;100.00;102240.63;10582392;28;20105;-66
2022/12/27 06:00:16;;;;;;;81.63;77.32;;;;;;;1.67;100.00;102238.84;10581242;28;20062;-66
2022/12/27 06:05:18;;;;;;;85.38;80.85;;;;;;;1.54;100.00;102254.09;10582751;28;20057;-66
2022/12/27 06:10:21;;;;;;;107.43;101.47;;;;;;;1.43;100.00;102247.03;10581756;28;20111;-67
2022/12/27 06:15:23;;;;;;;84.35;80.15;;;;;;;1.37;100.00;102243.47;10581549;28;20533;-67
2022/12/27 06:20:24;;;;;;;60.17;57.03;;;;;;;1.25;100.00;102244.13;10579325;28;20101;-66
2022/12/27 06:25:28;;;;;;;61.15;58.08;;;;;;;1.17;100.00;102239.66;10581438;28;20312;-66
2022/12/27 06:30:29;;;;;;;60.42;57.55;;;;;;;1.14;100.00;102243.06;10580817;28;20425;-66
2022/12/27 06:35:31;;;;;;;51.90;49.15;;;;;;;0.99;100.00;102247.03;10580737;28;20081;-67
2022/12/27 06:40:34;;;;;;;52.00;49.10;;;;;;;1.00;100.00;102253.06;10580355;28;20505;-66
2022/12/27 06:45:36;;;;;;;53.80;50.55;;;;;;;0.88;100.00;102258.81;10578411;28;20307;-66
2022/12/27 06:50:37;;;;;;;50.47;48.00;;;;;;;0.77;100.00;102254.31;10579931;28;20150;-67
2022/12/27 06:55:41;;;;;;;48.80;46.30;;;;;;;0.75;100.00;102245.69;10579882;28;20340;-65
2022/12/27 07:00:43;;;;;;;57.70;53.92;;;;;;;0.85;100.00;102249.34;10579583;28;20366;-65
2022/12/27 07:05:45;;;;;;;49.30;46.73;;;;;;;1.09;100.00;102247.25;10580009;28;20060;-65
2022/12/27 07:10:48;;;;;;;6.30;5.77;;;;;;;1.02;100.00;102267.69;10579870;28;20308;-65
2022/12/27 07:15:49;;;;;;;12.23;11.38;;;;;;;1.16;100.00;102277.38;10576920;28;20098;-67
2022/12/27 07:20:51;;;;;;;31.75;28.83;;;;;;;1.32;100.00;102265.69;10579055;28;20094;-67
2022/12/27 07:25:54;;;;;;;19.98;18.90;;;;;;;1.46;100.00;102273.66;10578754;28;20295;-67
2022/12/27 07:30:56;;;;;;;74.32;68.78;;;;;;;1.52;100.00;102278.94;10578886;28;20261;-69
2022/12/27 07:35:59;;;;;;;91.78;86.72;;;;;;;1.58;100.00;102287.59;10578387;28;20600;-69
2022/12/27 07:41:04;;;;;;;41.50;38.92;;;;;;;1.56;100.00;102286.69;10578572;28;20067;-69
2022/12/27 07:46:09;;;;;;;54.35;51.05;;;;;;;1.57;100.00;102291.03;10575627;28;20107;-67
2022/12/27 07:51:12;;;;;;;49.17;45.00;;;;;;;1.64;100.00;102292.88;10578914;28;20641;-67
2022/12/27 07:56:18;;;;;;;40.22;38.08;;;;;;;1.62;100.00;102294.53;10578039;28;20135;-68
2022/12/27 08:01:22;;;;;;;55.28;52.35;;;;;;;1.66;100.00;102296.31;10577580;28;20474;-67
2022/12/27 08:06:28;;;;;;;81.55;75.82;;;;;;;1.75;100.00;102306.78;10577680;28;20393;-68
2022/12/27 08:11:31;;;;;;;129.90;123.28;;;;;;;1.73;100.00;102305.91;10577867;28;20070;-68
2022/12/27 08:16:32;;;;;;;55.13;51.95;;;;;;;1.89;100.00;102319.03;10575745;28;20083;-69
2022/12/27 08:21:34;;;;;;;59.57;56.33;;;;;;;1.98;100.00;102313.19;10579015;28;20090;-68
2022/12/27 08:26:37;;;;;;;99.97;93.80;;;;;;;2.03;100.00;102314.13;10585660;28;20787;-69
2022/12/27 08:31:39;;;;;;;82.72;77.68;;;;;;;2.15;100.00;102331.50;10585975;28;20308;-69
2022/12/27 08:36:41;;;;;;;57.55;54.28;;;;;;;2.13;100.00;102328.03;10585586;28;20076;-68
2022/12/27 08:41:44;;;;;;;72.97;69.30;;;;;;;2.24;100.00;102326.50;10585434;28;20063;-68
2022/12/27 08:46:47;;;;;;;47.88;44.95;;;;;;;2.27;100.00;102317.97;10582575;28;20467;-68
2022/12/27 08:51:50;;;;;;;63.03;59.17;;;;;;;2.28;100.00;102311.94;10584674;28;20516;-68
2022/12/27 08:56:53;;;;;;;666.92;408.83;;;;;;;2.33;100.00;102319.75;10585048;28;20074;-68
2022/12/27 09:01:55;;;;;;;1999.90;999.90;;;;;;;2.40;100.00;102319.03;10584263;28;20066;-68
2022/12/27 09:06:56;;;;;;;1999.90;999.90;;;;;;;2.48;100.00;102316.56;10584341;28;20121;-69
2022/12/27 09:11:59;;;;;;;1085.97;581.28;;;;;;;2.53;100.00;102308.03;10584179;28;20090;-69
2022/12/27 09:17:04;;;;;;;1999.90;999.90;;;;;;;2.57;100.00;102309.81;10581637;28;20078;-68
2022/12/27 09:22:06;;;;;;;1999.90;999.90;;;;;;;2.70;100.00;102308.28;10583549;28;20086;-68
2022/12/27 09:27:09;;;;;;;1999.90;999.90;;;;;;;2.87;100.00;102320.53;10583091;28;20117;-69
2022/12/27 09:32:11;;;;;;;1999.90;999.90;;;;;;;3.08;100.00;102316.53;10582460;28;20061;-69
2022/12/27 09:37:12;;;;;;;1999.90;999.90;;;;;;;3.26;100.00;102326.22;10582478;28;20205;-68
2022/12/27 09:42:34;;;;;;;1999.90;999.90;;;;;;;3.44;100.00;102340.19;10583228;28;20333;-68
2022/12/27 09:47:48;;;;;;;1999.90;999.90;;;;;;;3.60;100.00;102329.16;10580041;28;20521;-69
2022/12/27 09:53:00;;;;;;;1999.90;999.90;;;;;;;3.78;100.00;102325.06;10582356;28;20153;-68
2022/12/27 09:58:22;;;;;;;1999.90;999.90;;;;;;;4.17;100.00;102335.72;10582109;28;20078;-69
2022/12/27 10:03:27;;;;;;;1999.90;999.90;;;;;;;5.13;100.00;102326.84;10582178;28;20062;-70
2022/12/27 10:08:43;;;;;;;1999.90;999.90;;;;;;;5.46;100.00;102324.38;10581990;28;20058;-68
2022/12/27 10:13:56;;;;;;;1524.15;772.88;;;;;;;5.78;100.00;102323.56;10581598;28;20191;-68
2022/12/27 10:19:23;;;;;;;150.77;143.45;;;;;;;6.55;100.00;102309.81;10578644;28;20047;-70
2022/12/27 10:24:38;;;;;;;139.63;132.63;;;;;;;6.86;100.00;102301.06;10581333;28;20348;-69
2022/12/27 10:29:42;;;;;;;105.70;100.28;;;;;;;6.80;100.00;102288.09;10580763;28;20073;-69
2022/12/27 10:34:44;;;;;;;88.00;83.20;;;;;;;6.22;100.00;102287.38;10581092;28;20122;-71
2022/12/27 10:39:46;;;;;;;98.03;93.00;;;;;;;6.25;100.00;102285.63;10580095;28;20048;-69
2022/12/27 10:44:49;;;;;;;119.65;113.32;;;;;;;6.84;100.00;102289.81;10579925;28;20059;-69
2022/12/27 10:50:12;;;;;;;159.77;149.95;;;;;;;6.78;100.00;102279.47;10577363;28;20184;-72
2022/12/27 10:55:34;;;;;;;175.63;160.63;;;;;;;6.64;100.00;102288.13;10580248;28;20113;-68
2022/12/27 11:00:37;;;;;;;163.68;153.65;;;;;;;7.02;100.00;102290.63;10580223;28;20051;-72
2022/12/27 11:05:39;;;;;;;84.35;79.50;;;;;;;5.97;100.00;102302.88;10579575;28;20051;-66
2022/12/27 11:10:41;;;;;;;160.73;152.73;;;;;;;5.65;100.00;102294.22;10579323;28;20055;-67
2022/12/27 11:15:56;;;;;;;192.32;180.07;;;;;;;5.46;100.00;102290.72;10577068;28;20055;-69
2022/12/27 11:21:00;;;;;;;136.30;129.70;;;;;;;5.50;100.00;102284.69;10578943;28;20089;-67
2022/12/27 11:26:06;;;;;;;130.88;124.13;;;;;;;5.55;100.00;102293.34;10578906;28;20092;-68
2022/12/27 11:31:16;;;;;;;135.45;128.40;;;;;;;5.47;100.00;102290.72;10578082;28;20525;-69
2022/12/27 11:36:26;;;;;;;172.02;163.52;;;;;;;5.61;100.00;102290.75;10578362;28;20521;-67
2022/12/27 11:41:43;;;;;;;143.73;136.77;;;;;;;5.57;100.00;102296.78;10578278;28;20495;-68
2022/12/27 11:46:56;;;;;;;205.10;194.77;;;;;;;5.61;100.00;102282.97;10575873;28;20040;-68
2022/12/27 11:52:43;;;;;;;269.98;255.80;;;;;;;5.55;100.00;102288.16;10578321;28;20052;-67
2022/12/27 11:58:38;;;;;;;180.23;171.43;;;;;;;5.61;100.00;102282.97;10569318;28;20048;-68
2022/12/27 12:04:51;;;;;;;199.68;189.07;;;;;;;5.44;100.00;102279.50;10577869;28;20529;-67
2022/12/27 12:10:16;;;;;;;164.70;156.55;;;;;;;5.41;100.00;102268.28;10406273;28;20059;-68
2022/12/27 12:16:23;;;;;;;192.05;182.52;;;;;;;5.44;100.00;102258.78;10571150;28;20551;-67
2022/12/27 12:21:33;;;;;;;151.68;143.00;;;;;;;5.43;100.00;102263.09;10454729;28;20055;-68
2022/12/27 12:26:49;;;;;;;144.88;137.52;;;;;;;5.47;100.00;102244.13;10577737;28;20047;-68
2022/12/27 12:32:27;;;;;;;234.88;222.77;;;;;;;5.51;100.00;102265.72;10577457;28;20073;-67
2022/12/27 12:38:02;;;;;;;184.82;175.50;;;;;;;5.53;100.00;102253.63;10577365;28;20047;-71
2022/12/27 12:43:31;;;;;;;156.70;148.90;;;;;;;5.45;100.00;102253.63;10577575;28;20112;-70
2022/12/27 12:48:59;;;;;;;208.60;197.60;;;;;;;5.38;100.00;102239.78;10575064;28;20464;-68
2022/12/27 12:54:29;;;;;;;182.10;172.70;;;;;;;5.46;100.00;102232.03;10577324;28;20457;-68
2022/12/27 13:00:06;;;;;;;152.13;144.57;;;;;;;5.49;100.00;102218.22;10576670;28;20070;-68
2022/12/27 13:05:22;;;;;;;180.60;171.65;;;;;;;5.44;100.00;102192.31;10576876;28;20121;-67
2022/12/27 13:10:55;;;;;;;148.63;141.15;;;;;;;5.52;100.00;102184.56;10583031;28;20111;-67
2022/12/27 13:16:15;;;;;;;159.15;150.82;;;;;;;5.50;100.00;102178.50;10582053;28;20654;-68
2022/12/27 13:21:32;;;;;;;146.25;138.82;;;;;;;5.49;100.00;102169.03;10584206;28;20089;-69
2022/12/27 13:26:49;;;;;;;178.73;169.85;;;;;;;5.43;100.00;102169.03;10584101;28;20097;-69
2022/12/27 13:32:05;;;;;;;174.43;165.48;;;;;;;5.34;100.00;102186.25;10583601;28;20097;-68
2022/12/27 13:37:33;;;;;;;148.10;140.35;;;;;;;5.35;100.00;102169.91;10583045;28;20551;-68
2022/12/27 13:42:58;;;;;;;197.60;187.80;;;;;;;5.41;100.00;102148.31;10583422;28;20501;-67
2022/12/27 13:48:25;;;;;;;194.07;184.40;;;;;;;5.50;100.00;102142.25;10580728;28;20171;-67
2022/12/27 13:54:15;;;;;;;232.95;220.02;;;;;;;5.56;100.00;102128.44;10582543;28;20043;-69
2022/12/27 14:00:03;;;;;;;217.50;206.57;;;;;;;5.63;100.00;102127.59;10582285;28;20445;-67
2022/12/27 14:06:16;;;;;;;208.70;198.35;;;;;;;5.62;100.00;102110.31;10579105;28;20070;-68
2022/12/27 14:11:43;;;;;;;214.82;204.18;;;;;;;5.69;100.00;102118.94;10519987;28;20063;-68
2022/12/27 14:17:09;;;;;;;215.68;202.57;;;;;;;5.83;100.00;102114.63;10579323;28;20573;-69
2022/12/27 14:22:39;;;;;;;186.45;177.27;;;;;;;5.70;100.00;102105.13;10580593;28;20086;-68
2022/12/27 14:28:23;;;;;;;186.23;174.98;;;;;;;5.58;100.00;102114.63;10601988;27;20486;-73
2022/12/27 14:34:36;;;;;;;197.32;185.18;;;;;;;5.66;100.00;102118.09;10594820;27;20061;-69
2022/12/27 14:40:20;;;;;;;169.65;161.02;;;;;;;5.69;100.00;102103.41;10491954;28;20041;-68
2022/12/27 14:46:13;;;;;;;199.05;188.00;;;;;;;5.59;100.00;102094.78;10619801;27;20110;-70
2022/12/27 14:52:05;;;;;;;190.65;180.55;;;;;;;5.47;100.00;102098.25;10623141;27;20062;-70
2022/12/27 14:57:28;;;;;;;210.05;199.45;;;;;;;5.39;100.00;102101.72;10622742;27;20088;-68
2022/12/27 15:02:53;;;;;;;213.13;201.10;;;;;;;5.40;100.00;102087.91;10622268;27;20431;-70
2022/12/27 15:08:39;;;;;;;193.32;183.52;;;;;;;5.34;100.00;102081.88;10622826;27;20057;-68
2022/12/27 15:14:07;;;;;;;193.27;183.02;;;;;;;5.29;100.00;102079.28;10621760;27;20402;-67
2022/12/27 15:19:39;;;;;;;208.82;198.05;;;;;;;5.15;100.00;102074.97;10606348;27;20663;-68
2022/12/27 15:24:59;;;;;;;211.20;200.13;;;;;;;5.08;100.00;102070.66;10577432;28;20062;-68
2022/12/27 15:30:20;;;;;;;189.10;179.60;;;;;;;5.03;100.00;102074.94;10577147;28;20050;-68
2022/12/27 15:35:53;;;;;;;217.90;207.00;;;;;;;5.10;100.00;102081.00;10579175;28;20103;-67
2022/12/27 15:41:22;;;;;;;222.77;212.00;;;;;;;5.14;100.00;102091.34;10579206;28;20048;-67
2022/12/27 15:47:03;;;;;;;1999.90;999.90;;;;;;;5.22;100.00;102093.06;10575668;28;20505;-69
2022/12/27 15:52:16;;;;;;;1999.90;999.90;;;;;;;5.27;100.00;102081.03;10578277;28;20081;-68
2022/12/27 15:57:56;;;;;;;1999.90;999.90;;;;;;;5.31;100.00;102064.63;10578609;28;20051;-68
2022/12/27 16:03:01;;;;;;;1999.90;999.90;;;;;;;5.27;100.00;102068.06;10578554;28;20293;-69
2022/12/27 16:08:27;;;;;;;1999.90;999.90;;;;;;;5.25;100.00;102062.03;10578214;28;20196;-68
2022/12/27 16:13:41;;;;;;;1999.90;999.90;;;;;;;5.14;100.00;102062.88;10578881;28;20065;-71
2022/12/27 16:19:07;;;;;;;1999.90;999.90;;;;;;;5.17;100.00;102063.75;10581928;28;20485;-68
2022/12/27 16:24:19;;;;;;;1999.90;999.90;;;;;;;5.08;100.00;102056.84;10620108;28;20065;-69
2022/12/27 16:29:28;;;;;;;1999.90;999.90;;;;;;;5.09;100.00;102053.38;10620745;28;20061;-69
2022/12/27 16:34:31;;;;;;;1999.90;999.90;;;;;;;5.09;100.00;102053.38;10620560;28;20062;-70
2022/12/27 16:40:00;;;;;;;1999.90;999.90;;;;;;;5.00;100.00;102038.75;10619525;28;20129;-69
2022/12/27 16:45:35;;;;;;;1999.90;999.90;;;;;;;5.01;100.00;102032.69;10625493;27;20100;-69
2022/12/27 16:51:02;;;;;;;1999.90;999.90;;;;;;;4.98;100.00;102037.88;10625216;27;20053;-69
2022/12/27 16:56:23;;;;;;;1554.95;802.08;;;;;;;4.92;100.00;102043.06;10628114;27;20090;-72
2022/12/27 17:02:00;;;;;;;1999.90;999.90;;;;;;;4.89;100.00;102039.59;10627411;27;20456;-68
2022/12/27 17:07:02;;;;;;;1999.90;999.90;;;;;;;4.75;100.00;102033.53;10621370;27;20061;-68
2022/12/27 17:12:16;;;;;;;1999.90;999.90;;;;;;;4.80;100.00;102034.41;10626665;27;20502;-69
2022/12/27 17:17:23;;;;;;;1999.90;999.90;;;;;;;4.73;100.00;102022.34;10624455;27;20318;-70
2022/12/27 17:22:27;;;;;;;349.60;324.10;;;;;;;4.79;100.00;102011.97;10626521;27;20473;-70
2022/12/27 17:27:47;;;;;;;1999.90;999.90;;;;;;;4.71;100.00;102013.69;10626550;27;20062;-71
2022/12/27 17:33:12;;;;;;;1999.90;999.90;;;;;;;4.72;100.00;102010.28;10625754;27;20060;-70
2022/12/27 17:38:29;;;;;;;1999.90;999.90;;;;;;;4.77;100.00;101998.19;10625721;27;20123;-69
2022/12/27 17:49:11;;;;;;;1999.90;999.90;;;;;;;4.72;100.00;101997.34;10623089;27;20447;-68
2022/12/27 17:59:46;;;;;;;1999.90;999.90;;;;;;;4.55;100.00;102005.91;10624789;27;20074;-67
2022/12/27 18:04:54;;;;;;;690.78;430.70;;;;;;;4.68;100.00;101999.06;10624758;27;20511;-68
2022/12/27 18:10:00;;;;;;;1999.90;999.90;;;;;;;4.74;100.00;101993.91;10625372;27;20067;-68
2022/12/27 18:15:07;;;;;;;1999.90;999.90;;;;;;;4.78;100.00;101988.72;10624603;27;20047;-70
2022/12/27 18:20:30;;;;;;;717.47;455.15;;;;;;;4.84;100.00;101968.91;10621556;27;20281;-72
2022/12/27 18:25:36;;;;;;;674.28;415.40;;;;;;;4.70;100.00;101965.44;10624290;27;20054;-68
2022/12/27 18:30:46;;;;;;;1118.22;610.72;;;;;;;4.69;100.00;101959.38;10623776;27;20060;-70
2022/12/27 18:35:51;;;;;;;1529.45;777.17;;;;;;;4.75;100.00;101940.41;10623800;27;20047;-74
2022/12/27 18:41:06;;;;;;;647.05;389.27;;;;;;;4.62;100.00;101931.84;10623473;27;20071;-68
2022/12/27 18:46:15;;;;;;;1999.90;999.90;;;;;;;4.43;100.00;101938.69;10621122;27;20322;-69
2022/12/27 18:51:18;;;;;;;1999.90;999.90;;;;;;;4.46;100.00;101928.38;10622766;27;20067;-68
2022/12/27 18:56:29;;;;;;;679.80;420.08;;;;;;;4.43;100.00;101921.47;10622896;27;20063;-69
2022/12/27 19:01:41;;;;;;;1999.90;999.90;;;;;;;4.36;100.00;101919.75;10622680;27;20170;-69
2022/12/27 19:06:54;;;;;;;233.80;222.33;;;;;;;4.29;100.00;101920.59;10621759;27;20063;-68
2022/12/27 19:12:02;;;;;;;654.35;395.98;;;;;;;4.29;100.00;101907.66;10622227;27;20052;-69
2022/12/27 19:17:05;;;;;;;654.38;396.35;;;;;;;4.14;100.00;101899.03;10620012;27;20419;-67
2022/12/27 19:22:41;;;;;;;228.18;215.95;;;;;;;4.09;100.00;101901.63;10621468;27;20178;-68
2022/12/27 19:28:00;;;;;;;652.40;394.35;;;;;;;4.02;100.00;101883.50;10620386;27;20149;-68
2022/12/27 19:33:07;;;;;;;679.05;419.65;;;;;;;3.96;100.00;101876.59;10621781;27;20519;-69
2022/12/27 19:38:20;;;;;;;249.45;236.35;;;;;;;3.90;100.00;101879.19;10620871;27;20485;-70
2022/12/27 19:43:24;;;;;;;1999.90;999.90;;;;;;;3.88;100.00;101865.41;10621102;27;20110;-71
2022/12/27 19:48:26;;;;;;;637.40;379.60;;;;;;;3.79;100.00;101872.28;10618738;27;20058;-69
2022/12/27 19:53:33;;;;;;;234.13;221.23;;;;;;;3.83;100.00;101861.09;10620626;27;20596;-68
2022/12/27 19:58:35;;;;;;;1143.90;636.13;;;;;;;3.84;100.00;101849.91;10619833;27;20086;-69
2022/12/27 20:03:37;;;;;;;200.27;190.05;;;;;;;3.82;100.00;101833.56;10620481;27;20508;-72
2022/12/27 20:08:44;;;;;;;260.77;247.38;;;;;;;3.80;100.00;101819.75;10621713;28;20456;-71
2022/12/27 20:13:47;;;;;;;683.38;422.88;;;;;;;3.85;100.00;101815.50;10620212;28;20065;-68
2022/12/27 20:18:49;;;;;;;162.55;154.05;;;;;;;3.84;100.00;101818.91;10621253;27;20085;-72
2022/12/27 20:23:52;;;;;;;206.82;196.18;;;;;;;3.92;100.00;101815.47;10628821;27;20060;-67
2022/12/27 20:28:54;;;;;;;200.25;188.45;;;;;;;3.96;100.00;101802.56;10628914;27;20053;-69
2022/12/27 20:33:56;;;;;;;230.80;215.73;;;;;;;4.01;100.00;101789.69;10628627;27;20121;-68
2022/12/27 20:38:59;;;;;;;210.25;199.68;;;;;;;3.96;100.00;101775.88;10628273;27;20073;-70
2022/12/27 20:44:00;;;;;;;195.50;183.77;;;;;;;4.01;100.00;101770.72;10627968;27;20575;-70
2022/12/27 20:49:02;;;;;;;240.55;227.40;;;;;;;4.04;100.00;101776.72;10625265;27;20545;-72
2022/12/27 20:54:05;;;;;;;295.98;278.42;;;;;;;4.09;100.00;101756.94;10628386;27;20053;-68
2022/12/27 20:59:07;;;;;;;249.50;237.10;;;;;;;4.12;100.00;101764.69;10627307;27;20543;-69
2022/12/27 21:04:10;;;;;;;1124.05;615.67;;;;;;;4.15;100.00;101750.03;10627829;27;20348;-78
2022/12/27 21:09:13;;;;;;;1109.07;602.38;;;;;;;4.20;100.00;101748.31;10626934;27;20395;-68
2022/12/27 21:14:14;;;;;;;1999.90;999.90;;;;;;;4.14;100.00;101743.16;10626923;27;20119;-71
2022/12/27 21:19:16;;;;;;;359.42;338.55;;;;;;;4.21;100.00;101734.53;10624103;27;20090;-73
2022/12/27 21:24:19;;;;;;;245.48;232.45;;;;;;;4.27;100.00;101731.94;10626507;27;20055;-69
2022/12/27 21:29:21;;;;;;;1086.82;578.85;;;;;;;4.28;100.00;101725.94;10626041;27;20065;-71
2022/12/27 21:34:23;;;;;;;250.50;237.65;;;;;;;4.32;100.00;101719.88;10627076;27;20066;-69
2022/12/27 21:39:26;;;;;;;269.73;255.85;;;;;;;4.29;100.00;101717.31;10626333;27;20114;-69
2022/12/27 21:44:28;;;;;;;256.98;243.30;;;;;;;4.29;100.00;101706.97;10625639;27;20057;-68
2022/12/27 21:49:30;;;;;;;641.97;384.15;;;;;;;4.35;100.00;101701.75;10623583;27;20057;-72
2022/12/27 21:54:34;;;;;;;246.02;233.90;;;;;;;4.44;100.00;101695.72;10625890;27;20062;-73
2022/12/27 21:59:35;;;;;;;223.25;211.73;;;;;;;4.46;100.00;101693.13;10625167;27;20206;-69
2022/12/27 22:04:37;;;;;;;1558.88;805.92;;;;;;;4.48;100.00;101681.06;10624777;27;20053;-68
2022/12/27 22:09:40;;;;;;;250.30;236.52;;;;;;;4.49;100.00;101670.69;10625130;27;20077;-67
2022/12/27 22:14:43;;;;;;;1999.90;999.90;;;;;;;4.52;100.00;101662.09;10624291;27;20066;-68
2022/12/27 22:19:44;;;;;;;1999.90;999.90;;;;;;;4.51;100.00;101656.06;10622134;27;20091;-67
2022/12/27 22:24:47;;;;;;;1106.57;601.13;;;;;;;4.50;100.00;101646.59;10623837;27;20593;-69
2022/12/27 22:29:49;;;;;;;1106.30;600.38;;;;;;;4.61;100.00;101641.38;10623975;27;20060;-68
2022/12/27 22:34:51;;;;;;;1098.55;592.95;;;;;;;4.60;100.00;101628.44;10623957;27;20065;-68
2022/12/27 22:39:54;;;;;;;256.27;243.20;;;;;;;4.66;100.00;101625.84;10622889;27;20601;-70
2022/12/27 22:44:55;;;;;;;1999.90;999.90;;;;;;;4.70;100.00;101608.56;10623371;27;20059;-68
2022/12/27 22:49:57;;;;;;;1559.40;806.08;;;;;;;4.74;100.00;101613.72;10620520;27;20063;-68
2022/12/27 22:55:00;;;;;;;247.88;235.30;;;;;;;4.79;100.00;101600.75;10623728;27;20086;-68
2022/12/27 23:00:04;;;;;;;239.68;225.32;;;;;;;4.82;100.00;101587.81;10622735;27;20114;-69
2022/12/27 23:05:07;;;;;;;267.42;252.15;;;;;;;4.84;100.00;101575.75;10622444;27;20154;-68
2022/12/27 23:10:11;;;;;;;285.63;262.17;;;;;;;4.90;100.00;101567.09;10622824;27;20102;-67
2022/12/27 23:15:12;;;;;;;108.07;86.93;;;;;;;4.94;100.00;101554.97;10621771;27;20061;-69
2022/12/27 23:20:14;;;;;;;19.77;18.38;;;;;;;4.95;100.00;101535.97;10619694;27;20087;-70
2022/12/27 23:25:17;;;;;;;5.47;4.50;;;;;;;4.95;100.00;101516.16;10622411;27;20092;-71
2022/12/27 23:30:21;;;;;;;17.15;14.70;;;;;;;4.96;100.00;101532.56;10621552;27;20052;-68
2022/12/27 23:35:23;;;;;;;105.68;64.32;;;;;;;4.99;100.00;101512.69;10621174;27;20423;-70
2022/12/27 23:40:26;;;;;;;7.28;6.82;;;;;;;4.97;100.00;101508.38;10620860;27;20536;-69
2022/12/27 23:45:28;;;;;;;94.38;85.38;;;;;;;5.01;100.00;101495.44;10621316;27;20474;-66
2022/12/27 23:50:29;;;;;;;11.80;11.00;;;;;;;4.90;100.00;101492.91;10618492;27;20051;-69
2022/12/27 23:55:33;;;;;;;205.73;167.02;;;;;;;4.92;100.00;101479.97;10619286;27;20452;-68
